Time;durP1;ratioP1;P1;durP2;ratioP2;P2;SDS_P1;SDS_P2;PMS_P1;PMS_P2;Temp;Humidity;BMP_temperature;BMP_pressure;BME280_temperature;BME280_humidity;BME280_pressure;Samples;Min_cycle;Max_cycle;Signal;HPM_P1;HPM_P2
2023/08/19 00:01:20;;;;;;;61.10;42.22;;;20.90;99.90;;;;;;5035074;28;20048;-49
2023/08/19 00:03:48;;;;;;;61.65;41.97;;;20.90;99.90;;;;;;5035211;28;20476;-52
2023/08/19 00:06:15;;;;;;;60.90;42.35;;;20.90;99.90;;;;;;5035138;28;20103;-51
2023/08/19 00:08:42;;;;;;;59.13;40.35;;;20.90;99.90;;;;;;5034974;28;20373;-54
2023/08/19 00:11:08;;;;;;;60.30;40.85;;;20.90;99.90;;;;;;5034895;28;20046;-51
2023/08/19 00:13:35;;;;;;;56.55;41.20;;;21.00;99.90;;;;;;5035021;28;20410;-54
2023/08/19 00:16:04;;;;;;;64.80;43.28;;;21.00;99.90;;;;;;5034090;28;20489;-53
2023/08/19 00:18:31;;;;;;;63.75;42.97;;;21.00;99.90;;;;;;5035007;28;20053;-55
2023/08/19 00:20:57;;;;;;;62.95;42.63;;;20.90;99.90;;;;;;5035339;28;20400;-51
2023/08/19 00:23:25;;;;;;;64.68;42.35;;;20.90;99.90;;;;;;5035242;28;20037;-53
2023/08/19 00:25:51;;;;;;;67.00;43.97;;;20.90;99.90;;;;;;5035022;28;20053;-51
2023/08/19 00:28:18;;;;;;;66.43;42.90;;;20.90;99.90;;;;;;5034655;28;20033;-53
2023/08/19 00:30:45;;;;;;;60.30;41.22;;;20.90;99.90;;;;;;5033744;28;20038;-54
2023/08/19 00:33:12;;;;;;;55.50;37.92;;;20.80;99.90;;;;;;5034345;28;20033;-56
2023/08/19 00:35:40;;;;;;;49.42;35.30;;;20.80;99.90;;;;;;5033538;28;20401;-57
2023/08/19 00:38:07;;;;;;;47.38;32.03;;;20.80;99.90;;;;;;5034571;28;20042;-55
2023/08/19 00:40:33;;;;;;;27.00;19.33;;;20.80;99.90;;;;;;5034516;28;20052;-56
2023/08/19 00:43:00;;;;;;;16.55;12.95;;;20.80;99.90;;;;;;5033196;28;20045;-53
2023/08/19 00:45:27;;;;;;;14.02;10.90;;;20.70;99.90;;;;;;5033289;28;20084;-55
2023/08/19 00:47:54;;;;;;;14.48;10.80;;;20.70;99.90;;;;;;5034154;28;20132;-51
2023/08/19 00:50:21;;;;;;;12.40;10.50;;;20.60;99.90;;;;;;5034428;28;20042;-55
2023/08/19 00:52:47;;;;;;;13.23;10.43;;;20.60;99.90;;;;;;5034687;28;20481;-51
2023/08/19 00:55:14;;;;;;;11.23;10.05;;;20.60;99.90;;;;;;5034424;28;20043;-52
2023/08/19 00:57:41;;;;;;;11.75;9.15;;;20.60;99.90;;;;;;5032887;28;20404;-56
2023/08/19 01:00:08;;;;;;;10.10;9.07;;;20.60;99.90;;;;;;5033158;28;20061;-54
2023/08/19 01:02:35;;;;;;;9.23;8.25;;;20.60;99.90;;;;;;5034456;28;20045;-55
2023/08/19 01:05:02;;;;;;;11.80;8.65;;;20.60;99.90;;;;;;5032964;28;20050;-51
2023/08/19 01:07:31;;;;;;;9.05;7.57;;;20.50;99.90;;;;;;5032628;28;20132;-55
2023/08/19 01:09:58;;;;;;;9.60;8.20;;;20.50;99.90;;;;;;5034228;28;20029;-55
2023/08/19 01:12:25;;;;;;;9.90;8.13;;;20.50;99.90;;;;;;5032700;28;20041;-56
2023/08/19 01:14:52;;;;;;;11.00;8.57;;;20.50;99.90;;;;;;5034462;28;20433;-56
2023/08/19 01:17:19;;;;;;;10.48;8.40;;;20.50;99.90;;;;;;5034091;28;20447;-56
2023/08/19 01:19:46;;;;;;;10.38;8.52;;;20.50;99.90;;;;;;5032675;28;20556;-54
2023/08/19 01:22:14;;;;;;;12.15;8.70;;;20.50;99.90;;;;;;5033739;28;20041;-48
2023/08/19 01:24:40;;;;;;;10.35;8.30;;;20.50;99.90;;;;;;5033757;28;20461;-55
2023/08/19 01:27:07;;;;;;;11.32;8.90;;;20.50;99.90;;;;;;5033491;28;20411;-57
2023/08/19 01:29:34;;;;;;;10.18;8.75;;;20.50;99.90;;;;;;5032245;28;20042;-56
2023/08/19 01:32:01;;;;;;;9.23;8.23;;;20.50;99.90;;;;;;5033611;28;20485;-52
2023/08/19 01:34:28;;;;;;;10.05;8.13;;;20.50;99.90;;;;;;5033783;28;20065;-51
2023/08/19 01:36:55;;;;;;;9.88;7.72;;;20.40;99.90;;;;;;5032054;28;20053;-54
2023/08/19 01:39:21;;;;;;;11.13;6.55;;;20.40;99.90;;;;;;5032202;28;20116;-56
2023/08/19 01:41:48;;;;;;;9.27;6.68;;;20.40;99.90;;;;;;5032339;28;20041;-53
2023/08/19 01:44:15;;;;;;;7.70;6.28;;;20.40;99.90;;;;;;5033416;28;20038;-54
2023/08/19 01:46:42;;;;;;;7.55;6.07;;;20.40;99.90;;;;;;5031793;28;20049;-55
2023/08/19 01:49:08;;;;;;;7.00;5.88;;;20.40;99.90;;;;;;5033155;28;20141;-55
2023/08/19 01:51:35;;;;;;;9.48;6.20;;;20.40;99.90;;;;;;5033174;28;20064;-54
2023/08/19 01:54:03;;;;;;;8.77;5.40;;;20.40;99.90;;;;;;5031882;28;20041;-55
2023/08/19 01:56:30;;;;;;;8.40;4.95;;;20.30;99.90;;;;;;5032920;28;20033;-52
2023/08/19 01:58:58;;;;;;;9.85;5.25;;;20.30;99.90;;;;;;5032152;28;20055;-55
2023/08/19 02:01:25;;;;;;;9.85;5.07;;;20.30;99.90;;;;;;5031806;28;20052;-54
2023/08/19 02:03:52;;;;;;;8.18;4.38;;;20.30;99.90;;;;;;5031667;28;20442;-55
2023/08/19 02:06:19;;;;;;;7.72;4.25;;;20.30;99.90;;;;;;5032817;28;20045;-52
2023/08/19 02:08:46;;;;;;;5.90;4.30;;;20.30;99.90;;;;;;5031383;28;20049;-56
2023/08/19 02:11:12;;;;;;;8.93;4.50;;;20.20;99.90;;;;;;5031576;28;20041;-52
2023/08/19 02:13:40;;;;;;;5.88;3.83;;;20.30;99.90;;;;;;5031542;28;20045;-53
2023/08/19 02:16:06;;;;;;;7.63;4.20;;;20.20;99.90;;;;;;5031314;28;20044;-55
2023/08/19 02:18:33;;;;;;;6.53;3.50;;;20.20;99.90;;;;;;5031393;28;20072;-54
2023/08/19 02:21:00;;;;;;;7.32;3.70;;;20.10;99.90;;;;;;5032819;28;20041;-56
2023/08/19 02:23:27;;;;;;;5.88;3.50;;;20.10;99.90;;;;;;5032807;28;20045;-54
2023/08/19 02:25:54;;;;;;;6.45;3.60;;;20.10;99.90;;;;;;5032557;28;20060;-55
2023/08/19 02:28:20;;;;;;;5.60;3.05;;;20.10;99.90;;;;;;5032590;28;20057;-56
2023/08/19 02:30:47;;;;;;;6.88;3.20;;;20.00;99.90;;;;;;5032436;28;20038;-52
2023/08/19 02:33:14;;;;;;;3.97;2.85;;;20.00;99.90;;;;;;5032656;28;20048;-55
2023/08/19 02:35:41;;;;;;;5.18;3.13;;;20.00;99.90;;;;;;5032581;28;20065;-54
2023/08/19 02:38:07;;;;;;;4.63;2.80;;;20.00;99.90;;;;;;5032390;28;20054;-56
2023/08/19 02:40:34;;;;;;;6.30;3.40;;;19.90;99.90;;;;;;5032301;28;20385;-56
2023/08/19 02:43:01;;;;;;;5.35;3.03;;;19.90;99.90;;;;;;5032828;28;20042;-50
2023/08/19 02:45:28;;;;;;;7.50;3.13;;;19.80;99.90;;;;;;5031194;28;20053;-50
2023/08/19 02:47:55;;;;;;;9.48;3.40;;;19.80;99.90;;;;;;5032127;28;20050;-49
2023/08/19 02:50:22;;;;;;;5.95;3.17;;;19.80;99.90;;;;;;5030869;28;20057;-53
2023/08/19 02:52:49;;;;;;;5.88;2.95;;;19.80;99.90;;;;;;5030941;28;20077;-52
2023/08/19 02:55:16;;;;;;;7.82;3.15;;;19.80;99.90;;;;;;5031017;28;20477;-50
2023/08/19 02:57:42;;;;;;;6.18;2.97;;;19.80;99.90;;;;;;5032377;28;20088;-50
2023/08/19 03:00:09;;;;;;;6.70;2.90;;;19.90;99.90;;;;;;5032383;28;20038;-48
2023/08/19 03:02:36;;;;;;;4.63;3.15;;;19.90;99.90;;;;;;5032052;28;20038;-54
2023/08/19 03:05:04;;;;;;;6.85;3.17;;;19.90;99.90;;;;;;5030995;28;20045;-53
2023/08/19 03:07:31;;;;;;;6.75;2.88;;;19.80;99.90;;;;;;5031917;28;20412;-55
2023/08/19 03:09:58;;;;;;;7.93;3.28;;;19.80;99.90;;;;;;5035096;28;20360;-53
2023/08/19 03:12:25;;;;;;;6.18;3.00;;;19.80;99.90;;;;;;5035158;28;20049;-56
2023/08/19 03:14:51;;;;;;;6.95;2.95;;;19.80;99.90;;;;;;5036163;28;20068;-55
2023/08/19 03:17:19;;;;;;;5.57;3.05;;;19.80;99.90;;;;;;5035944;28;20120;-52
2023/08/19 03:19:46;;;;;;;9.55;3.80;;;19.80;99.90;;;;;;5036128;28;20048;-55
2023/08/19 03:22:13;;;;;;;6.10;2.90;;;19.80;99.90;;;;;;5035035;28;20455;-55
2023/08/19 03:24:42;;;;;;;8.55;3.13;;;19.80;99.90;;;;;;5034487;28;20041;-55
2023/08/19 03:27:09;;;;;;;6.53;3.47;;;19.80;99.90;;;;;;5035698;28;20052;-49
2023/08/19 03:29:37;;;;;;;6.55;3.00;;;19.80;99.90;;;;;;5034681;28;20123;-53
2023/08/19 03:32:04;;;;;;;6.13;2.80;;;19.70;99.90;;;;;;5034832;28;20076;-49
2023/08/19 03:34:31;;;;;;;9.85;3.30;;;19.80;99.90;;;;;;5034538;28;20528;-55
2023/08/19 03:36:57;;;;;;;9.25;3.30;;;19.70;99.90;;;;;;5035990;28;20042;-54
2023/08/19 03:39:25;;;;;;;7.55;2.90;;;19.70;99.90;;;;;;5034469;28;20045;-54
2023/08/19 03:41:52;;;;;;;7.57;2.72;;;19.70;99.90;;;;;;5034298;28;20050;-55
2023/08/19 03:44:18;;;;;;;8.95;2.92;;;19.60;99.90;;;;;;5036015;28;20135;-54
2023/08/19 03:46:45;;;;;;;10.38;3.28;;;19.50;99.90;;;;;;5034492;28;20046;-52
2023/08/19 03:49:12;;;;;;;9.80;3.20;;;19.50;99.90;;;;;;5017873;28;20507;-56
2023/08/19 03:51:39;;;;;;;6.70;2.80;;;19.50;99.90;;;;;;5035592;28;20045;-54
2023/08/19 03:54:06;;;;;;;11.77;3.30;;;19.40;99.90;;;;;;5035529;28;20044;-54
2023/08/19 03:56:32;;;;;;;7.22;2.83;;;19.30;99.90;;;;;;5034332;28;20045;-56
2023/08/19 03:58:59;;;;;;;9.57;3.22;;;19.30;99.90;;;;;;5035565;28;20065;-54
2023/08/19 04:01:26;;;;;;;8.63;2.80;;;19.20;99.90;;;;;;5035588;28;20068;-53
2023/08/19 04:03:53;;;;;;;12.07;3.15;;;19.20;99.90;;;;;;5027734;28;20053;-52
2023/08/19 04:06:20;;;;;;;11.77;3.38;;;19.10;99.90;;;;;;5027500;28;20053;-52
2023/08/19 04:08:47;;;;;;;13.38;2.88;;;19.00;99.90;;;;;;5027560;28;20461;-50
2023/08/19 04:11:13;;;;;;;9.40;3.08;;;19.00;99.90;;;;;;5028574;28;20048;-53
2023/08/19 04:13:42;;;;;;;12.38;3.22;;;19.00;99.90;;;;;;5034080;28;20045;-53
2023/08/19 04:16:09;;;;;;;10.95;3.33;;;18.90;99.90;;;;;;5028803;28;20046;-54
2023/08/19 04:18:37;;;;;;;10.98;2.75;;;18.90;99.90;;;;;;5027141;28;20060;-50
2023/08/19 04:21:04;;;;;;;10.80;3.20;;;18.80;99.90;;;;;;5020619;28;20045;-56
2023/08/19 04:23:31;;;;;;;11.30;2.78;;;18.80;99.90;;;;;;5028765;28;20125;-54
2023/08/19 04:25:58;;;;;;;13.23;3.38;;;18.80;99.90;;;;;;5014258;28;20092;-50
2023/08/19 04:28:26;;;;;;;8.25;2.80;;;18.70;99.90;;;;;;5026864;28;20049;-54
2023/08/19 04:30:53;;;;;;;13.73;2.90;;;18.70;99.90;;;;;;5033473;28;20037;-54
2023/08/19 04:33:20;;;;;;;12.27;2.70;;;18.70;99.90;;;;;;5014191;28;20042;-54
2023/08/19 04:35:47;;;;;;;12.38;3.28;;;18.60;99.90;;;;;;5026875;28;20455;-56
2023/08/19 04:38:15;;;;;;;10.48;2.80;;;18.60;99.90;;;;;;5033342;28;20147;-51
2023/08/19 04:40:43;;;;;;;16.65;3.30;;;18.50;99.90;;;;;;5033684;28;20136;-53
2023/08/19 04:43:11;;;;;;;15.15;3.50;;;18.50;99.90;;;;;;5028258;28;20049;-52
2023/08/19 04:45:39;;;;;;;16.08;3.08;;;18.50;99.90;;;;;;5013969;28;20509;-52
2023/08/19 04:48:06;;;;;;;10.60;3.08;;;18.40;99.90;;;;;;5033125;28;20052;-55
2023/08/19 04:50:34;;;;;;;12.93;3.60;;;18.40;99.90;;;;;;5033171;28;20550;-51
2023/08/19 04:53:00;;;;;;;11.60;2.63;;;18.40;99.90;;;;;;5034513;28;20120;-55
2023/08/19 04:55:27;;;;;;;13.90;3.00;;;18.30;99.90;;;;;;5034941;28;20095;-49
2023/08/19 04:57:54;;;;;;;13.88;3.38;;;18.30;99.90;;;;;;5019907;28;20063;-52
2023/08/19 05:00:21;;;;;;;17.92;3.60;;;18.30;99.90;;;;;;5027234;28;20408;-53
2023/08/19 05:02:48;;;;;;;11.18;2.83;;;18.20;99.90;;;;;;5026756;28;20042;-56
2023/08/19 05:05:16;;;;;;;12.10;2.50;;;18.20;99.90;;;;;;5033024;28;20042;-54
2023/08/19 05:07:43;;;;;;;15.80;3.42;;;18.20;99.90;;;;;;5027937;28;20049;-53
2023/08/19 05:10:10;;;;;;;14.55;3.17;;;18.10;99.90;;;;;;5027803;28;20042;-56
2023/08/19 05:12:36;;;;;;;14.05;2.85;;;18.10;99.90;;;;;;5031162;28;20045;-55
2023/08/19 05:15:04;;;;;;;14.70;3.00;;;18.10;99.90;;;;;;5013571;28;20069;-55
2023/08/19 05:17:30;;;;;;;21.13;3.58;;;18.10;99.90;;;;;;5032804;28;20047;-55
2023/08/19 05:19:58;;;;;;;18.92;4.00;;;18.10;99.90;;;;;;5034108;28;20089;-56
2023/08/19 05:22:24;;;;;;;16.77;3.40;;;18.10;99.90;;;;;;5032617;28;20045;-56
2023/08/19 05:24:51;;;;;;;17.40;3.03;;;18.10;99.90;;;;;;5033945;28;20041;-56
2023/08/19 05:27:20;;;;;;;16.83;3.97;;;18.10;99.90;;;;;;5032434;28;20057;-56
2023/08/19 05:29:46;;;;;;;16.77;3.03;;;18.10;99.90;;;;;;5031743;28;20104;-55
2023/08/19 05:32:13;;;;;;;18.70;3.28;;;18.10;99.90;;;;;;5032955;28;20033;-53
2023/08/19 05:34:40;;;;;;;13.15;2.78;;;18.10;99.90;;;;;;5033925;28;20048;-56
2023/08/19 05:37:07;;;;;;;16.27;3.67;;;18.20;99.90;;;;;;5032491;28;20044;-54
2023/08/19 05:39:33;;;;;;;20.73;3.65;;;18.20;99.90;;;;;;5033496;28;20041;-54
2023/08/19 05:42:00;;;;;;;20.13;3.47;;;18.10;99.90;;;;;;5033853;28;20107;-56
2023/08/19 05:44:27;;;;;;;19.85;3.67;;;18.20;99.90;;;;;;5032551;28;20057;-57
2023/08/19 05:46:54;;;;;;;19.77;4.28;;;18.20;99.90;;;;;;5032764;28;20137;-54
2023/08/19 05:49:20;;;;;;;15.10;3.15;;;18.10;99.90;;;;;;5032118;28;20037;-49
2023/08/19 05:51:47;;;;;;;16.70;3.22;;;18.20;99.90;;;;;;5033660;28;20381;-54
2023/08/19 05:54:14;;;;;;;19.05;4.05;;;18.10;99.90;;;;;;5032788;28;20081;-54
2023/08/19 05:56:41;;;;;;;21.88;3.92;;;18.10;99.90;;;;;;5033338;28;20480;-50
2023/08/19 05:59:08;;;;;;;20.95;4.05;;;18.10;99.90;;;;;;5033246;28;20394;-51
2023/08/19 06:01:35;;;;;;;19.20;3.78;;;18.20;99.90;;;;;;5032840;28;20049;-52
2023/08/19 06:04:02;;;;;;;14.73;3.67;;;18.20;99.90;;;;;;5033554;28;20439;-52
2023/08/19 06:06:29;;;;;;;19.95;4.15;;;18.20;99.90;;;;;;5033316;28;20041;-54
2023/08/19 06:08:56;;;;;;;16.10;3.97;;;18.20;99.90;;;;;;5033612;28;20065;-56
2023/08/19 06:11:22;;;;;;;19.00;3.85;;;18.20;99.90;;;;;;5033044;28;20037;-54
2023/08/19 06:13:50;;;;;;;19.77;4.05;;;18.20;99.90;;;;;;5033177;28;20168;-53
2023/08/19 06:16:17;;;;;;;23.35;4.82;;;18.20;99.90;;;;;;5032482;28;20037;-54
2023/08/19 06:18:43;;;;;;;18.40;4.25;;;18.30;99.90;;;;;;5033088;28;20042;-52
2023/08/19 06:21:10;;;;;;;18.48;3.38;;;18.40;99.90;;;;;;5033047;28;20041;-53
2023/08/19 06:23:37;;;;;;;18.85;3.75;;;18.50;99.90;;;;;;5033048;28;20037;-50
2023/08/19 06:26:04;;;;;;;19.58;3.78;;;18.50;99.90;;;;;;5032878;28;20103;-51
2023/08/19 06:28:31;;;;;;;16.38;3.47;;;18.60;99.90;;;;;;5033161;28;20042;-54
2023/08/19 06:30:58;;;;;;;15.15;3.72;;;18.80;99.90;;;;;;5032878;28;20044;-53
2023/08/19 06:33:24;;;;;;;17.88;3.90;;;18.80;99.90;;;;;;5031910;28;20037;-52
2023/08/19 06:35:51;;;;;;;16.45;4.05;;;18.90;99.90;;;;;;5031104;28;20056;-55
2023/08/19 06:38:18;;;;;;;14.48;3.50;;;19.00;99.90;;;;;;5029711;28;20053;-57
2023/08/19 06:40:45;;;;;;;23.63;3.72;;;19.10;99.90;;;;;;5031696;28;20409;-54
2023/08/19 06:43:12;;;;;;;20.02;3.53;;;19.10;99.90;;;;;;5032678;28;20034;-55
2023/08/19 06:45:39;;;;;;;14.88;3.60;;;19.20;99.90;;;;;;5032942;28;20116;-55
2023/08/19 06:48:05;;;;;;;15.25;3.58;;;19.20;99.90;;;;;;5032529;28;20428;-55
2023/08/19 06:50:32;;;;;;;17.27;3.30;;;19.30;99.90;;;;;;5032878;28;20091;-52
2023/08/19 06:52:59;;;;;;;15.60;3.30;;;19.30;99.90;;;;;;5032618;28;20038;-57
2023/08/19 06:55:26;;;;;;;15.20;3.42;;;19.40;99.90;;;;;;5032713;28;20052;-57
2023/08/19 06:57:53;;;;;;;16.55;3.97;;;19.40;99.90;;;;;;5032340;28;20088;-55
2023/08/19 07:00:19;;;;;;;14.18;3.80;;;19.40;99.90;;;;;;5030704;28;20059;-57
2023/08/19 07:02:46;;;;;;;18.77;3.75;;;19.50;99.90;;;;;;5030490;28;20500;-55
2023/08/19 07:05:13;;;;;;;16.73;3.45;;;19.50;99.90;;;;;;5032334;28;20057;-49
2023/08/19 07:07:40;;;;;;;18.27;3.47;;;19.60;99.90;;;;;;5031591;28;20041;-53
2023/08/19 07:10:08;;;;;;;20.75;3.65;;;19.60;99.90;;;;;;5032489;28;20121;-50
2023/08/19 07:12:35;;;;;;;13.73;3.40;;;19.70;99.90;;;;;;5032335;28;20041;-56
2023/08/19 07:15:02;;;;;;;16.52;4.05;;;19.70;99.90;;;;;;5032526;28;20038;-54
2023/08/19 07:17:29;;;;;;;16.17;3.47;;;19.70;99.90;;;;;;5031439;28;20072;-54
2023/08/19 07:19:56;;;;;;;16.67;3.08;;;19.70;99.90;;;;;;5032396;28;20046;-56
2023/08/19 07:22:23;;;;;;;17.15;3.33;;;19.70;99.90;;;;;;5032298;28;20045;-55
2023/08/19 07:24:51;;;;;;;19.55;4.03;;;19.70;99.90;;;;;;5030946;28;20059;-56
2023/08/19 07:27:17;;;;;;;14.60;3.33;;;19.80;99.90;;;;;;5032271;28;20123;-56
2023/08/19 07:29:46;;;;;;;16.92;3.20;;;19.80;99.90;;;;;;5032050;28;20046;-55
2023/08/19 07:32:13;;;;;;;14.93;3.53;;;19.90;99.90;;;;;;5029936;28;20045;-54
2023/08/19 07:34:40;;;;;;;13.85;3.20;;;19.90;99.90;;;;;;5032105;28;20053;-56
2023/08/19 07:37:06;;;;;;;12.88;2.90;;;19.90;99.90;;;;;;5031600;28;20053;-56
2023/08/19 07:39:36;;;;;;;12.75;3.22;;;20.00;99.90;;;;;;5032152;28;20045;-52
2023/08/19 07:42:03;;;;;;;15.98;3.20;;;20.00;99.90;;;;;;5031034;28;20037;-55
2023/08/19 07:44:30;;;;;;;13.93;2.72;;;20.10;99.90;;;;;;5031321;28;20461;-52
2023/08/19 07:46:57;;;;;;;12.07;3.05;;;20.20;99.90;;;;;;5031946;28;20080;-53
2023/08/19 07:49:23;;;;;;;11.15;2.80;;;20.20;99.90;;;;;;5030744;28;20041;-53
2023/08/19 07:51:50;;;;;;;14.00;2.78;;;20.30;99.90;;;;;;5032045;28;20113;-55
2023/08/19 07:54:21;;;;;;;12.57;2.63;;;20.30;99.90;;;;;;5033889;28;20439;-55
2023/08/19 07:56:48;;;;;;;11.45;3.10;;;20.30;99.90;;;;;;5035740;28;20046;-53
2023/08/19 07:59:15;;;;;;;12.60;3.10;;;20.30;99.90;;;;;;5035633;28;20041;-52
2023/08/19 08:01:41;;;;;;;13.45;2.63;;;20.40;99.90;;;;;;5035570;28;20059;-55
2023/08/19 08:04:08;;;;;;;12.85;2.97;;;20.50;99.90;;;;;;5035504;28;20137;-52
2023/08/19 08:06:35;;;;;;;13.93;3.08;;;20.60;99.90;;;;;;5035218;28;20117;-53
2023/08/19 08:09:02;;;;;;;13.27;2.65;;;20.80;99.90;;;;;;5035217;28;20037;-53
2023/08/19 08:11:28;;;;;;;11.40;3.15;;;20.80;99.90;;;;;;5035674;28;20030;-53
2023/08/19 08:13:55;;;;;;;12.93;2.58;;;21.00;99.90;;;;;;5035232;28;20045;-56
2023/08/19 08:16:22;;;;;;;13.90;2.95;;;21.00;99.90;;;;;;5035242;28;20088;-52
2023/08/19 08:18:49;;;;;;;16.92;3.40;;;21.00;99.90;;;;;;5035141;28;20088;-52
2023/08/19 08:21:18;;;;;;;13.27;3.20;;;21.00;99.90;;;;;;5035131;28;20042;-52
2023/08/19 08:23:44;;;;;;;12.43;2.97;;;21.10;99.90;;;;;;5035049;28;20484;-51
2023/08/19 08:26:11;;;;;;;14.80;3.08;;;21.20;99.90;;;;;;5034905;28;20460;-53
2023/08/19 08:28:38;;;;;;;12.60;3.05;;;21.30;99.90;;;;;;5033532;28;20046;-51
2023/08/19 08:31:05;;;;;;;11.68;2.90;;;21.30;99.90;;;;;;5034244;28;20045;-48
2023/08/19 08:33:32;;;;;;;12.90;3.17;;;21.40;99.90;;;;;;5034906;28;20046;-54
2023/08/19 08:36:00;;;;;;;10.93;2.80;;;21.50;99.90;;;;;;5033779;28;20057;-54
2023/08/19 08:38:27;;;;;;;10.10;2.70;;;21.60;99.90;;;;;;5035088;28;20104;-56
2023/08/19 08:40:54;;;;;;;16.77;3.40;;;21.70;99.90;;;;;;5034749;28;20042;-48
2023/08/19 08:43:21;;;;;;;14.13;2.90;;;21.70;99.90;;;;;;5034672;28;20060;-50
2023/08/19 08:45:47;;;;;;;13.25;3.17;;;21.80;99.90;;;;;;5033316;28;20127;-55
2023/08/19 08:48:16;;;;;;;11.93;2.45;;;21.80;99.90;;;;;;5034505;28;20448;-56
2023/08/19 08:50:43;;;;;;;10.38;2.60;;;21.80;99.90;;;;;;5033235;28;20045;-53
2023/08/19 08:53:09;;;;;;;11.10;2.80;;;21.80;99.90;;;;;;5035553;28;20099;-56
2023/08/19 08:55:36;;;;;;;14.18;2.88;;;21.90;99.90;;;;;;5033663;28;20037;-57
2023/08/19 08:58:03;;;;;;;9.77;2.70;;;21.90;99.90;;;;;;5039982;28;20126;-57
2023/08/19 09:00:30;;;;;;;10.45;2.08;;;21.90;99.90;;;;;;5032475;28;20049;-54
2023/08/19 09:02:56;;;;;;;12.50;2.42;;;21.90;99.90;;;;;;5031655;28;20050;-56
2023/08/19 09:05:24;;;;;;;11.85;2.33;;;21.80;99.90;;;;;;5032669;28;20122;-54
2023/08/19 09:07:50;;;;;;;9.55;2.58;;;21.80;99.90;;;;;;5033921;28;20168;-50
2023/08/19 09:10:18;;;;;;;9.68;2.63;;;21.70;99.90;;;;;;5034146;28;20522;-53
2023/08/19 09:12:45;;;;;;;9.73;2.63;;;21.70;99.90;;;;;;5025252;28;20661;-56
2023/08/19 09:15:12;;;;;;;15.23;3.22;;;21.60;99.90;;;;;;5026460;28;20060;-55
2023/08/19 09:17:39;;;;;;;12.88;3.35;;;21.50;99.90;;;;;;5026586;28;20056;-53
2023/08/19 09:20:06;;;;;;;12.68;2.78;;;21.40;99.90;;;;;;5033030;28;20132;-53
2023/08/19 09:22:33;;;;;;;10.52;2.70;;;21.40;99.90;;;;;;5032903;28;20465;-55
2023/08/19 09:25:00;;;;;;;12.18;2.63;;;21.30;99.90;;;;;;5032893;28;20048;-53
2023/08/19 09:27:27;;;;;;;7.13;1.90;;;21.40;99.90;;;;;;5033583;28;20041;-56
2023/08/19 09:29:54;;;;;;;10.13;2.10;;;21.40;99.90;;;;;;5032897;28;20033;-53
2023/08/19 09:32:21;;;;;;;9.32;2.00;;;21.40;99.90;;;;;;5033946;28;20476;-53
2023/08/19 09:34:48;;;;;;;8.65;1.85;;;21.50;99.90;;;;;;5034011;28;20103;-53
2023/08/19 09:37:16;;;;;;;9.57;2.03;;;21.50;99.90;;;;;;5032394;28;20140;-52
2023/08/19 09:39:43;;;;;;;9.00;2.53;;;21.50;99.90;;;;;;5033500;28;20042;-56
2023/08/19 09:42:09;;;;;;;9.48;2.38;;;21.60;99.90;;;;;;5033646;28;20045;-52
2023/08/19 09:44:36;;;;;;;6.20;1.60;;;21.70;99.90;;;;;;5033810;28;20048;-55
2023/08/19 09:47:03;;;;;;;5.75;1.45;;;21.80;99.90;;;;;;5033230;28;20113;-52
2023/08/19 09:49:30;;;;;;;6.28;1.83;;;21.90;99.90;;;;;;5033332;28;20041;-56
2023/08/19 09:51:57;;;;;;;7.75;1.55;;;22.10;99.90;;;;;;5033475;28;20041;-56
2023/08/19 09:54:24;;;;;;;6.95;1.70;;;22.30;99.90;;;;;;5033467;28;20572;-54
2023/08/19 09:56:51;;;;;;;7.57;1.75;;;22.50;99.90;;;;;;5033253;28;20128;-51
2023/08/19 09:59:18;;;;;;;9.23;1.70;;;22.60;99.90;;;;;;5033267;28;20045;-53
2023/08/19 10:01:45;;;;;;;6.28;1.42;;;22.80;99.90;;;;;;5033151;28;20044;-50
2023/08/19 10:04:11;;;;;;;6.95;1.70;;;22.80;99.90;;;;;;5033071;28;20044;-53
2023/08/19 10:06:38;;;;;;;6.47;1.55;;;22.90;99.90;;;;;;5031914;28;20040;-54
2023/08/19 10:09:05;;;;;;;5.97;1.67;;;23.00;99.90;;;;;;5033111;28;20048;-53
2023/08/19 10:11:32;;;;;;;8.90;1.90;;;23.10;99.90;;;;;;5032979;28;20565;-53
2023/08/19 10:13:59;;;;;;;6.80;1.70;;;23.10;99.90;;;;;;5033030;28;20504;-53
2023/08/19 10:16:25;;;;;;;5.28;1.50;;;23.10;99.90;;;;;;5032633;28;20408;-53
2023/08/19 10:18:52;;;;;;;6.53;1.63;;;23.10;99.90;;;;;;5033068;28;20128;-54
2023/08/19 10:21:19;;;;;;;5.80;1.38;;;23.00;99.90;;;;;;5033243;28;20077;-52
2023/08/19 10:23:46;;;;;;;5.90;1.33;;;22.80;99.90;;;;;;5033240;28;20049;-56
2023/08/19 10:26:13;;;;;;;5.80;1.50;;;22.60;99.90;;;;;;5032870;28;20041;-55
2023/08/19 10:28:40;;;;;;;5.88;1.63;;;22.50;99.90;;;;;;5033438;28;20152;-51
2023/08/19 10:31:07;;;;;;;11.05;1.80;;;22.30;99.90;;;;;;5032975;28;20037;-55
2023/08/19 10:33:37;;;;;;;8.00;1.90;;;22.20;99.90;;;;;;5033245;28;20103;-55
2023/08/19 10:36:04;;;;;;;7.25;1.70;;;22.20;99.90;;;;;;5032801;28;20041;-55
2023/08/19 10:38:31;;;;;;;9.32;2.00;;;22.20;99.90;;;;;;5031516;28;20042;-55
2023/08/19 10:40:58;;;;;;;6.68;1.58;;;22.20;99.90;;;;;;5032799;28;20049;-53
2023/08/19 10:43:24;;;;;;;9.70;2.20;;;22.30;99.90;;;;;;5031555;28;20050;-54
2023/08/19 10:45:51;;;;;;;7.95;1.85;;;22.20;99.90;;;;;;5032675;28;20048;-57
2023/08/19 10:48:18;;;;;;;5.50;1.40;;;22.20;99.90;;;;;;5023406;28;20111;-55
2023/08/19 10:50:46;;;;;;;8.80;1.60;;;22.30;99.70;;;;;;5023825;28;20044;-56
2023/08/19 10:53:12;;;;;;;5.85;1.67;;;22.30;99.90;;;;;;5020646;28;20034;-57
2023/08/19 10:55:39;;;;;;;5.82;1.55;;;22.50;99.60;;;;;;5019952;28;20034;-57
2023/08/19 10:58:06;;;;;;;5.75;1.50;;;22.50;99.60;;;;;;5024916;28;20038;-58
2023/08/19 11:00:33;;;;;;;8.07;1.90;;;22.60;99.90;;;;;;5032875;28;20393;-58
2023/08/19 11:02:59;;;;;;;8.60;1.73;;;22.80;99.90;;;;;;5033054;28;20048;-55
2023/08/19 11:05:26;;;;;;;9.23;2.00;;;22.70;99.70;;;;;;5032454;28;20037;-57
2023/08/19 11:07:54;;;;;;;6.70;1.90;;;22.60;99.30;;;;;;5031831;28;20047;-53
2023/08/19 11:10:22;;;;;;;8.15;1.77;;;22.60;98.90;;;;;;5032788;28;20132;-48
2023/08/19 11:12:48;;;;;;;11.25;2.17;;;22.60;99.70;;;;;;5033058;28;20037;-56
2023/08/19 11:15:15;;;;;;;10.02;2.13;;;22.70;99.80;;;;;;5032932;28;20118;-58
2023/08/19 11:17:42;;;;;;;6.65;1.50;;;22.90;99.90;;;;;;5031514;28;20055;-56
2023/08/19 11:20:10;;;;;;;11.70;2.10;;;23.00;99.60;;;;;;5032025;28;20046;-53
2023/08/19 11:22:37;;;;;;;7.32;2.00;;;23.00;99.90;;;;;;5031534;28;20096;-52
2023/08/19 11:25:06;;;;;;;6.70;1.80;;;23.10;99.80;;;;;;5030755;28;20103;-55
2023/08/19 11:27:33;;;;;;;5.72;1.42;;;23.10;99.80;;;;;;5030270;28;20145;-54
2023/08/19 11:30:00;;;;;;;9.82;2.03;;;23.20;99.10;;;;;;5033674;28;20049;-50
2023/08/19 11:32:29;;;;;;;9.80;2.13;;;23.20;99.00;;;;;;5032613;28;20524;-57
2023/08/19 11:34:56;;;;;;;12.52;2.40;;;23.20;99.10;;;;;;5032531;28;20041;-56
2023/08/19 11:37:23;;;;;;;9.45;2.13;;;23.30;98.50;;;;;;5032954;28;20033;-57
2023/08/19 11:39:49;;;;;;;8.02;1.55;;;23.40;98.90;;;;;;5034475;28;20107;-57
2023/08/19 11:42:16;;;;;;;8.95;1.80;;;23.40;98.40;;;;;;5036129;28;20042;-57
2023/08/19 11:44:43;;;;;;;10.20;2.33;;;23.30;98.40;;;;;;5035998;28;20544;-57
2023/08/19 11:47:10;;;;;;;9.30;2.17;;;23.20;98.30;;;;;;5035606;28;20049;-58
2023/08/19 11:49:37;;;;;;;10.10;1.83;;;23.10;97.90;;;;;;5035792;28;20396;-56
2023/08/19 11:52:03;;;;;;;7.13;1.80;;;23.10;97.50;;;;;;5036043;28;20488;-56
2023/08/19 11:54:30;;;;;;;6.25;1.80;;;23.10;97.90;;;;;;5036132;28;20029;-58
2023/08/19 11:56:59;;;;;;;7.50;1.52;;;23.20;97.60;;;;;;5035845;28;20033;-57
2023/08/19 11:59:26;;;;;;;7.40;1.90;;;23.30;96.60;;;;;;5035985;28;20060;-57
2023/08/19 12:01:52;;;;;;;8.70;1.92;;;23.30;97.30;;;;;;5034554;28;20117;-58
2023/08/19 12:04:19;;;;;;;11.38;2.28;;;23.40;97.50;;;;;;5035685;28;20041;-58
2023/08/19 12:06:46;;;;;;;7.45;2.17;;;23.30;97.50;;;;;;5035489;28;20042;-57
2023/08/19 12:09:13;;;;;;;8.73;2.00;;;23.30;97.10;;;;;;5034198;28;20046;-58
2023/08/19 12:11:40;;;;;;;10.45;2.78;;;23.30;97.20;;;;;;5035601;28;20109;-58
2023/08/19 12:14:07;;;;;;;8.35;1.92;;;23.40;97.30;;;;;;5035618;28;20045;-57
2023/08/19 12:16:34;;;;;;;9.90;2.20;;;23.40;97.10;;;;;;5035922;28;20042;-54
2023/08/19 12:19:01;;;;;;;6.50;1.90;;;23.40;96.40;;;;;;5035650;28;20045;-53
2023/08/19 12:21:28;;;;;;;9.85;1.88;;;23.40;96.70;;;;;;5035363;28;20060;-53
2023/08/19 12:23:55;;;;;;;8.07;2.22;;;23.40;96.70;;;;;;5035104;28;20041;-54
2023/08/19 12:26:21;;;;;;;7.03;2.10;;;23.50;96.50;;;;;;5035256;28;20072;-55
2023/08/19 12:28:48;;;;;;;8.40;2.30;;;23.50;96.60;;;;;;5035491;28;20045;-55
2023/08/19 12:31:15;;;;;;;8.55;1.90;;;23.50;96.80;;;;;;5034265;28;20037;-59
2023/08/19 12:33:42;;;;;;;10.60;2.40;;;23.60;96.70;;;;;;5035052;28;20037;-58
2023/08/19 12:36:09;;;;;;;5.82;1.70;;;23.60;96.70;;;;;;5033579;28;20085;-55
2023/08/19 12:38:45;;;;;;;10.38;2.67;;;23.60;96.50;;;;;;5034982;28;20263;-57